createdAt,value
2019-05-26T17:24:47.954Z,2.03
2019-05-26T17:27:15.639Z,2.23
2019-05-26T17:29:43.225Z,3.27
2019-05-26T17:32:10.847Z,5.33
2019-05-26T17:34:38.456Z,2.50
2019-05-26T17:37:06.159Z,2.40
2019-05-26T17:39:33.725Z,2.53
2019-05-26T17:42:01.348Z,1.80
2019-05-26T17:44:29.524Z,2.40
2019-05-26T17:46:57.087Z,2.20
2019-05-26T17:49:25.088Z,2.57
2019-05-26T17:51:52.645Z,2.90
2019-05-26T17:54:20.448Z,2.73
2019-05-26T17:56:48.004Z,1.93
2019-05-26T17:59:15.731Z,2.60
2019-05-26T18:01:43.376Z,2.43
2019-05-26T18:04:11.395Z,2.30
2019-05-26T18:06:39.047Z,2.77
2019-05-26T18:09:06.806Z,2.70
2019-05-26T18:11:34.488Z,2.73
2019-05-26T18:14:04.939Z,2.53
2019-05-26T18:16:32.583Z,2.50
2019-05-26T18:19:00.182Z,2.50
2019-05-26T18:21:27.759Z,2.40
2019-05-26T18:23:55.391Z,2.70
2019-05-26T18:26:22.964Z,2.77
2019-05-26T18:28:50.535Z,2.60
2019-05-26T18:31:18.129Z,2.97
2019-05-26T18:33:45.728Z,3.07
2019-05-26T18:36:13.344Z,2.90
2019-05-26T18:38:40.891Z,2.90
2019-05-26T18:41:08.623Z,3.17
2019-05-26T18:43:36.207Z,3.00
2019-05-26T18:46:04.143Z,5.00
2019-05-26T18:48:31.834Z,3.30
2019-05-26T18:50:59.469Z,3.37
2019-05-26T18:53:29.684Z,3.40
2019-05-26T18:55:56.657Z,3.50
2019-05-26T18:58:24.326Z,3.50
2019-05-26T19:00:53.801Z,3.40
2019-05-26T19:03:21.384Z,3.50
2019-05-26T19:05:49.044Z,3.57
2019-05-26T19:08:16.585Z,3.43
2019-05-26T19:10:44.243Z,3.20
2019-05-26T19:13:11.961Z,3.50
2019-05-26T19:15:39.562Z,3.60
2019-05-26T19:18:19.261Z,3.87
2019-05-26T19:20:36.605Z,3.67
2019-05-26T19:23:04.325Z,3.70
2019-05-26T19:25:31.936Z,5.00
2019-05-26T19:27:59.597Z,4.20
2019-05-26T19:30:27.280Z,4.23
2019-05-26T19:32:54.916Z,4.43
2019-05-26T19:35:22.483Z,4.00
2019-05-26T19:37:50.114Z,4.00
2019-05-26T19:40:18.066Z,4.70
2019-05-26T19:42:45.634Z,4.27
2019-05-26T19:45:13.446Z,4.23
2019-05-26T19:47:41.056Z,4.40
2019-05-26T19:50:08.674Z,4.67
2019-05-26T19:52:39.298Z,4.93
2019-05-26T19:55:07.218Z,4.77
2019-05-26T19:57:34.878Z,4.60
2019-05-26T20:00:02.789Z,4.53
2019-05-26T20:02:30.436Z,4.23
2019-05-26T20:04:58.179Z,5.17
2019-05-26T20:07:25.752Z,5.20
2019-05-26T20:09:53.614Z,5.50
2019-05-26T20:12:21.381Z,5.23
2019-05-26T20:14:49.176Z,5.60
2019-05-26T20:17:16.784Z,5.80
2019-05-26T20:19:44.398Z,5.43
2019-05-26T20:22:11.972Z,5.80
2019-05-26T20:24:39.595Z,5.57
2019-05-26T20:27:07.246Z,5.37
2019-05-26T20:29:34.886Z,6.27
2019-05-26T20:32:02.543Z,6.50
2019-05-26T20:34:30.142Z,7.30
2019-05-26T20:36:57.710Z,6.83
2019-05-26T20:39:25.308Z,6.80
2019-05-26T20:41:52.992Z,6.83
2019-05-26T20:44:20.549Z,6.03
2019-05-26T20:46:48.131Z,6.67
2019-05-26T20:49:15.694Z,6.63
2019-05-26T20:51:43.281Z,6.20
2019-05-26T20:54:10.950Z,6.70
2019-05-26T20:56:39.317Z,6.17
2019-05-26T20:59:07.051Z,6.77
2019-05-26T21:01:34.594Z,6.20
2019-05-26T21:04:03.415Z,7.10
2019-05-26T21:06:31.038Z,6.30
2019-05-26T21:08:58.602Z,6.90
2019-05-26T21:11:26.293Z,7.83
2019-05-26T21:13:53.887Z,6.87
2019-05-26T21:16:21.518Z,7.10
2019-05-26T21:18:49.066Z,7.67
2019-05-26T21:21:16.713Z,7.47
2019-05-26T21:23:44.289Z,7.60
2019-05-26T21:26:11.857Z,7.23
2019-05-26T21:28:39.657Z,7.00
2019-05-26T21:31:07.196Z,7.90
2019-05-26T21:33:34.742Z,7.60
2019-05-26T21:36:02.310Z,8.03
2019-05-26T21:38:30.089Z,7.40
2019-05-26T21:40:57.670Z,7.63
2019-05-26T21:43:25.214Z,7.60
2019-05-26T21:45:52.827Z,8.40
2019-05-26T21:48:20.393Z,8.00
2019-05-26T21:50:47.981Z,7.60
2019-05-26T21:53:15.598Z,8.07
2019-05-26T21:55:43.253Z,8.50
2019-05-26T21:58:10.824Z,7.70
2019-05-26T22:00:41.990Z,7.97
2019-05-26T22:03:09.518Z,7.57
2019-05-26T22:05:37.100Z,7.90
2019-05-26T22:08:04.682Z,8.30
2019-05-26T22:10:32.274Z,8.70
2019-05-26T22:12:59.833Z,9.53
2019-05-26T22:15:27.443Z,8.73
2019-05-26T22:17:55.185Z,8.37
2019-05-26T22:20:22.751Z,8.70
2019-05-26T22:22:50.319Z,9.33
2019-05-26T22:25:18.075Z,9.40
2019-05-26T22:27:45.650Z,10.17
2019-05-26T22:30:14.016Z,10.63
2019-05-26T22:32:41.655Z,9.63
2019-05-26T22:35:09.300Z,8.67
2019-05-26T22:37:37.065Z,8.70
2019-05-26T22:40:05.587Z,10.10
2019-05-26T22:42:33.169Z,10.63
2019-05-26T22:45:00.748Z,11.43
2019-05-26T22:47:28.292Z,11.60
2019-05-26T22:49:58.365Z,11.23
2019-05-26T22:52:25.955Z,10.10
2019-05-26T22:54:53.743Z,11.53
2019-05-26T22:57:21.294Z,10.67
2019-05-26T22:59:48.839Z,11.93
2019-05-26T23:02:16.581Z,11.97
2019-05-26T23:04:44.124Z,11.93
2019-05-26T23:07:11.790Z,12.13
2019-05-26T23:09:39.348Z,11.10
2019-05-26T23:12:07.163Z,9.67
2019-05-26T23:14:34.722Z,10.47
2019-05-26T23:17:02.272Z,10.20
2019-05-26T23:19:29.879Z,10.10
2019-05-26T23:21:57.422Z,10.40
2019-05-26T23:24:25.151Z,10.40
2019-05-26T23:26:52.690Z,10.37
2019-05-26T23:29:20.264Z,9.53
2019-05-26T23:31:47.835Z,9.10
2019-05-26T23:34:15.391Z,8.50
2019-05-26T23:36:42.946Z,9.43
2019-05-26T23:39:10.581Z,10.80
2019-05-26T23:41:38.085Z,10.67
2019-05-26T23:44:05.714Z,10.30
2019-05-26T23:46:33.257Z,11.40
2019-05-26T23:49:00.831Z,13.13
2019-05-26T23:51:28.625Z,13.47
2019-05-26T23:53:56.166Z,13.27
2019-05-26T23:56:23.718Z,12.77
2019-05-26T23:58:51.298Z,13.40
